Airfield :







YOU CAN JOIN US ON...

 
LOGIN :

Register | Disclaimer

   EN    FR    IT 

 









Legend :    VFR   Marginal VFR   IFR   Intensive IFR   Very Intensive IFR
Visi :
Ceiling :
>= 8 km
>= 3000ft
5 to 8 km
1000 to 3000 ft
1500m to 5 km
500 to 1000 ft
800 to 1500m
200 to 500 ft
< 800m
< 200 ft
Symbols :   Thunderstorms  Fog  Heavy snow  Heavy precipitations  Wind > 20 kt






- Airport Elevation : 1194 ft


KPSF - Pittsfield Municipal

CURRENT METAR :
  • 012254Z AUTO VRB03KT 10SM SCT055 BKN085 14/09 A2990 RMK AO2 SLP111 T01390094

EXPIRED METARs :
  • 012154Z AUTO 21003KT 10SM FEW060 17/09 A2988 RMK AO2 SLP103 T01720089
  • 012054Z AUTO 25005KT 10SM SCT060 19/08 A2987 RMK AO2 SLP099 T01890078 51003

TAF KPSF
Valid from the 01 at 18:00 until the 02 at 18:00 UTC


011725Z 0118/0218 29009KT P6SM SCT045
FM012300 27004KT P6SM FEW045 SCT100
FM020800 00000KT P6SM VCSH BKN040 OVC080
TEMPO 0210/0214 5SM -SHRA BR BKN035
FM021400 28005KT P6SM VCSH SCT020 BKN035
KZBW FIR / North America



MET'MAP, your aeronautical weather chart ! - Copyright ORBIFLY December 2007 - Disclaimer

ORBIFLY MET'MAP TEAM :

Programming & Development : Alexandra Zaïnal
Concept & original design : Baudouin d'Aumeries
Assistance for programming : Marc-Olivier Méhu
Technical & hardware support : Manuel Goepfert

Contact : metmap@orbifly.com




SOURCES & CREDITS :

   NOAA